Nearby AIRPORT Reports

 

KATT - Austin/Mabry, Texas, USA
Distance from station: NE 13mi, 20km
Updated: Wed, 24-Jul-2024 6:51pm CDT
Few Clouds
Few Clouds
 Wind from SE
Wind: SE 7 mph, 11 km/h
Temperature: 88°F, 31°C
Heat Index: 93°F, 34°C
Dew Point: 70°F, 21°C
Humidity: 55%
Barometer: 30.07 inHg, 1018.3 hPa
Clouds: Few Clouds
Visibility: 10 miles, 16 km
Cloud details: Few Clouds 4500 ft
2024/07/24 23:51 KATT 242351Z AUTO 14006KT 10SM FEW045 31/21 A3007 RMK AO2 SLP168 T03060206 10333 20294 55003
KAUS - Austin/Bergstrom, Texas, USA
Distance from station: E 15mi, 25km
Updated: Wed, 24-Jul-2024 6:53pm CDT
Mostly cloudy
Mostly cloudy
 Wind from ESE
Wind: ESE 8 mph, 13 km/h
Temperature: 86°F, 30°C
Heat Index: 92°F, 33°C
Dew Point: 72°F, 22°C
Humidity: 62%
Barometer: 30.05 inHg, 1017.6 hPa
Clouds: Mostly cloudy
Visibility: 10 miles, 16 km
Cloud details: Partly cloudy 8000 ft
Mostly cloudy 9500 ft
Mostly cloudy 20000 ft
2024/07/24 23:53 KAUS 242353Z 11007KT 10SM SCT080 BKN095 BKN200 30/22 A3005 RMK AO2 SLP165 T03000222 10317 20294 55001
 
KHYI - San Marcos, Texas, USA
Distance from station: S 23mi, 37km
Updated: Wed, 24-Jul-2024 6:56pm CDT
Mostly cloudy
Mostly cloudy
 Wind from ESE
Wind: ESE 7 mph, 11 km/h
Temperature: 86°F, 30°C
Heat Index: 92°F, 33°C
Dew Point: 72°F, 22°C
Humidity: 62%
Barometer: 30.08 inHg, 1018.6 hPa
Clouds: Mostly cloudy
Visibility: 10 miles, 16 km
Cloud details: Mostly cloudy 7500 ft
2024/07/24 23:56 KHYI 242356Z 11006KT 10SM BKN075 30/22 A3008 RMK AO2 SLP177 T03000222 10328 20300 53001
KGTU - Georgetown, Texas, USA
Distance from station: NNE 36mi, 58km
Updated: Wed, 24-Jul-2024 6:56pm CDT
Clear
Clear
 Wind from E
Wind: E 7 mph, 11 km/h
Temperature: 88°F, 31°C
Heat Index: 91°F, 33°C
Dew Point: 66°F, 19°C
Humidity: 49%
Barometer: 30.08 inHg, 1018.6 hPa
Clouds: Clear
Visibility: 10 miles, 16 km
2024/07/24 23:56 KGTU 242356Z 10006KT 10SM CLR 31/19 A3008 RMK AO2 SLP181 T03060194 10333 20300 55004
 
KBMQ - Burnet, Texas, USA
Distance from station: NNW 40mi, 65km
Updated: Wed, 24-Jul-2024 6:53pm CDT
Clear
Clear
 Wind from E
Wind: E 8 mph, 13 km/h
Temperature: 88°F, 31°C
Heat Index: 91°F, 33°C
Dew Point: 66°F, 19°C
Humidity: 49%
Barometer: 30.10 inHg, 1019.3 hPa
Clouds: Clear
Visibility: 10 miles, 16 km
2024/07/24 23:53 KBMQ 242353Z AUTO 08007KT 10SM CLR 31/19 A3010 RMK AO2 SLP172 T03110194 10328 20294 56005
KT82 - Fredericksburg, Texas, USA
Distance from station: W 59mi, 94km
Updated: Wed, 24-Jul-2024 7:15pm CDT
Partly cloudy
Partly cloudy
 Wind from E
Wind: E 8 mph, 13 km/h
Temperature: 86°F, 30°C
Heat Index: 89°F, 32°C
Dew Point: 68°F, 20°C
Humidity: 55%
Barometer: 30.11 inHg, 1019.6 hPa
Clouds: Partly cloudy
Visibility: 10 miles, 16 km
Cloud details: Partly cloudy 5000 ft
Partly cloudy 7000 ft
2024/07/25 00:15 KT82 250015Z AUTO 09007KT 10SM SCT050 SCT070 30/20 A3011 RMK AO2 T02950199
 
KGTU - Georgetown, Texas, USA
Distance from station: NNE 36mi, 58km
Updated: Wed, 24-Jul-2024 6:56pm CDT
Clear
Clear
 Wind from E
Wind: E 7 mph, 11 km/h
Temperature: 88°F, 31°C
Heat Index: 91°F, 33°C
Dew Point: 66°F, 19°C
Humidity: 49%
Barometer: 30.08 inHg, 1018.6 hPa
Clouds: Clear
Visibility: 10 miles, 16 km
2024/07/24 23:56 KGTU 242356Z 10006KT 10SM CLR 31/19 A3008 RMK AO2 SLP181 T03060194 10333 20300 55004
KAQO - Llano, Texas, USA
Distance from station: NW 59mi, 95km
Updated: Wed, 24-Jul-2024 7:15pm CDT
Few Clouds
Few Clouds
 Wind from E
Wind: E 8 mph, 13 km/h
Temperature: 90°F, 32°C
Heat Index: 91°F, 33°C
Dew Point: 63°F, 17°C
Humidity: 41%
Barometer: 30.07 inHg, 1018.3 hPa
Clouds: Few Clouds
Visibility: 10 miles, 16 km
Cloud details: Few Clouds 6500 ft
2024/07/25 00:15 KAQO 250015Z AUTO 10007KT 10SM FEW065 32/17 A3007 RMK AO2
 
KERV - Kerrville, Texas, USA
Distance from station: WSW 70mi, 113km
Updated: Wed, 24-Jul-2024 7:15pm CDT
Clear
Clear
 Wind from E
Wind: E 8 mph, 13 km/h
Temperature: 86°F, 30°C
Heat Index: 91°F, 33°C
Dew Point: 70°F, 21°C
Humidity: 59%
Barometer: 30.11 inHg, 1019.6 hPa
Clouds: Clear
Visibility: 10 miles, 16 km
2024/07/25 00:15 KERV 250015Z AUTO 10007KT 10SM CLR 30/21 A3011 RMK AO2 T02950208
KSAT - San Antonio, Texas, USA
Distance from station: SW 56mi, 91km
Updated: Wed, 24-Jul-2024 6:51pm CDT
Mostly cloudy
Mostly cloudy
 Wind from E
Wind: E 10 mph, 17 km/h
Temperature: 84°F, 29°C
Heat Index: 90°F, 32°C
Dew Point: 73°F, 23°C
Humidity: 70%
Barometer: 30.07 inHg, 1018.3 hPa
Clouds: Mostly cloudy
Visibility: 10 miles, 16 km
Cloud details: Few Clouds 3000 ft
Partly cloudy 10000 ft
Mostly cloudy 25000 ft
2024/07/24 23:51 KSAT 242351Z 09009KT 10SM FEW030 SCT100 BKN250 29/23 A3007 RMK AO2 SLP163 SHRA DSNT N 60049 T02940228 10300 20233 56002
 
K11R - Brenham, Texas, USA
Distance from station: E 94mi, 151km
Updated: Wed, 24-Jul-2024 7:15pm CDT
Partly cloudy
Partly cloudy
 Wind from ESE
Wind: ESE 3 mph, 6 km/h
Temperature: 86°F, 30°C
Heat Index: 95°F, 35°C
Dew Point: 75°F, 24°C
Humidity: 70%
Barometer: 30.06 inHg, 1017.9 hPa
Clouds: Partly cloudy
Visibility: 10 miles, 16 km
Cloud details: Partly cloudy 4200 ft
Partly cloudy 5000 ft
2024/07/25 00:15 K11R 250015Z AUTO 12003KT 10SM SCT042 SCT050 30/24 A3006 RMK AO2 T03000244
KTME - Houston Exec, Texas, USA
Distance from station: ESE 125mi, 201km
Updated: Wed, 24-Jul-2024 7:15pm CDT
Light Drizzle
Light Drizzle
 Wind from SSE
Wind: SSE 3 mph, 6 km/h
Temperature: 79°F, 26°C
Dew Point: 79°F, 26°C
Humidity: 100%
Barometer: 30.07 inHg, 1018.3 hPa
Summary: Light Drizzle
Visibility: 5 miles, 8 km
2024/07/25 00:15 KTME 250015Z AUTO 15003KT 5SM -DZ 26/26 A3007 RMK AO2